Airfield :







YOU CAN JOIN US ON...

 
LOGIN :

Register | Disclaimer

   EN    FR    IT 

 









Legend :    VFR   Marginal VFR   IFR   Intensive IFR   Very Intensive IFR
Visi :
Ceiling :
>= 8 km
>= 3000ft
5 to 8 km
1000 to 3000 ft
1500m to 5 km
500 to 1000 ft
800 to 1500m
200 to 500 ft
< 800m
< 200 ft
Symbols :   Thunderstorms  Fog  Heavy snow  Heavy precipitations  Wind > 20 kt






- Airport Elevation : 133 ft
- IATA code : BED


KBED - Laurence G Hanscom Field

CURRENT METAR :
  • 240851Z AUTO 15009KT 10SM OVC011 22/22 A3001 RMK AO2 SLP173 60009 T02220217 55005

EXPIRED METARs :
  • 240751Z AUTO 13010KT 10SM OVC011 22/21 A3001 RMK AO2 RAE10 SLP172 P0002 T02220211
  • 240713Z AUTO 12009KT 10SM BKN014 BKN020 OVC047 22/21 A3002 RMK AO2 RAE10 P0002 T02170211
  • 240659Z AUTO 13007KT 6SM -RA BR SCT018 BKN043 OVC070 22/21 A3002 RMK AO2 P0002 T02170211
  • 240651Z AUTO 14009KT 2 1/2SM +RA BR FEW018 BKN036 OVC070 22/21 A3002 RMK AO2 VIS 1 1/2V5 RAB28 SLP175 P0007 T02170211

TAF KBED
Valid from the 24 at 07:00 until the 25 at 06:00 UTC


240721Z 2407/2506 12009KT P6SM VCSH BKN014 BKN020 OVC045
FM240800 14007KT P6SM VCSH BKN008
FM241100 15008KT 6SM -SHRA BR OVC003
FM241500 17009KT 6SM -SHRA BR OVC015
FM242300 20004KT 5SM -SHRA BR OVC020
FM250100 00000KT 6SM -SHRA BR OVC035
KZBW FIR / North America



MET'MAP, your aeronautical weather chart ! - Copyright ORBIFLY December 2007 - Disclaimer

ORBIFLY MET'MAP TEAM :

Programming & Development : Alexandra Zaïnal
Concept & original design : Baudouin d'Aumeries
Assistance for programming : Marc-Olivier Méhu
Technical & hardware support : Manuel Goepfert

Contact : metmap@orbifly.com




SOURCES & CREDITS :

   NOAA